createdAt,value
2022-09-28T00:02:28.108Z,96582.97
2022-09-28T00:05:31.791Z,96582.19
2022-09-28T00:08:36.831Z,96586.50
2022-09-28T00:11:40.258Z,96577.22
2022-09-28T00:14:44.856Z,96567.66
2022-09-28T00:17:48.263Z,96552.38
2022-09-28T00:21:01.150Z,96544.38
2022-09-28T00:24:17.158Z,96539.81
2022-09-28T00:27:20.369Z,96535.09
2022-09-28T00:30:23.866Z,96538.91
2022-09-28T00:33:27.295Z,96532.44
2022-09-28T00:36:32.052Z,96523.34
2022-09-28T00:39:38.326Z,96512.25
2022-09-28T00:42:42.880Z,96514.81
2022-09-28T00:45:47.154Z,96492.50
2022-09-28T00:48:56.045Z,96500.81
2022-09-28T00:51:59.801Z,96496.59
2022-09-28T00:55:08.796Z,96464.22
2022-09-28T00:58:17.034Z,96492.09
2022-09-28T01:01:20.335Z,96485.66
2022-09-28T01:04:29.190Z,96484.06
2022-09-28T01:07:35.023Z,96464.22
2022-09-28T01:10:40.617Z,96473.69
2022-09-28T01:13:45.082Z,96469.38
2022-09-28T01:16:58.832Z,96462.28
2022-09-28T01:20:28.168Z,96462.72
2022-09-28T01:23:55.039Z,96457.47
2022-09-28T01:27:06.937Z,96429.09
2022-09-28T01:30:13.010Z,96399.84
2022-09-28T01:33:23.648Z,96389.34
2022-09-28T01:36:31.091Z,96390.63
2022-09-28T01:39:38.258Z,96391.38
2022-09-28T01:42:45.959Z,96370.19
2022-09-28T01:45:52.584Z,96362.78
2022-09-28T01:48:59.032Z,96364.41
2022-09-28T01:52:08.009Z,96355.50
2022-09-28T01:55:15.101Z,96348.66
2022-09-28T01:58:25.877Z,96342.06
2022-09-28T02:01:34.517Z,96340.38
2022-09-28T02:04:42.151Z,96339.75
2022-09-28T02:07:51.658Z,96338.69
2022-09-28T02:11:01.117Z,96341.69
2022-09-28T02:14:07.791Z,96333.75
2022-09-28T02:17:11.331Z,96334.63
2022-09-28T02:20:15.055Z,96329.00
2022-09-28T02:23:20.066Z,96337.66
2022-09-28T02:26:28.518Z,96327.88
2022-09-28T02:29:33.359Z,96321.28
2022-09-28T02:32:40.951Z,96320.16
2022-09-28T02:35:44.563Z,96313.53
2022-09-28T02:38:47.840Z,96313.09
2022-09-28T02:42:01.162Z,96311.06
2022-09-28T02:45:21.925Z,96308.56
2022-09-28T02:48:44.096Z,96306.19
2022-09-28T02:52:03.534Z,96304.91
2022-09-28T02:55:26.833Z,96306.56
2022-09-28T02:58:41.271Z,96253.03
2022-09-28T03:01:53.920Z,96296.34
2022-09-28T03:05:13.300Z,96289.25
2022-09-28T03:08:24.728Z,96277.59
2022-09-28T03:11:34.115Z,96282.84
2022-09-28T03:14:38.444Z,96274.66
2022-09-28T03:17:42.961Z,96265.94
2022-09-28T03:20:47.511Z,96271.78
2022-09-28T03:23:50.642Z,96267.66
2022-09-28T03:26:53.818Z,96260.75
2022-09-28T03:29:58.867Z,96238.22
2022-09-28T03:35:08.026Z,96242.38
2022-09-28T03:38:11.137Z,96231.88
2022-09-28T03:41:15.041Z,96239.41
2022-09-28T03:44:19.530Z,96240.59
2022-09-28T03:47:24.004Z,96239.09
2022-09-28T03:50:28.848Z,96230.81
2022-09-28T03:53:32.274Z,96228.44
2022-09-28T03:56:36.889Z,96218.34
2022-09-28T03:59:40.077Z,96206.44
2022-09-28T04:02:43.410Z,96175.13
2022-09-28T04:05:53.110Z,96200.78
2022-09-28T04:08:56.483Z,96193.25
2022-09-28T04:12:04.175Z,96192.91
2022-09-28T04:15:09.554Z,96187.03
2022-09-28T04:18:13.597Z,96167.63
2022-09-28T04:21:53.380Z,96180.06
2022-09-28T04:24:56.704Z,96141.94
2022-09-28T04:28:17.285Z,96166.06
2022-09-28T04:31:23.489Z,96159.78
2022-09-28T04:34:29.794Z,96135.84
2022-09-28T04:37:36.364Z,96149.28
2022-09-28T04:40:39.410Z,96150.00
2022-09-28T04:43:42.619Z,96154.63
2022-09-28T04:46:46.039Z,96157.66
2022-09-28T04:50:08.134Z,96158.84
2022-09-28T04:53:40.062Z,96149.06
2022-09-28T04:56:43.209Z,96159.91
2022-09-28T04:59:46.479Z,96149.53
2022-09-28T05:02:49.616Z,96160.84
2022-09-28T05:06:14.920Z,96149.88
2022-09-28T05:09:23.537Z,96126.22
2022-09-28T05:12:28.442Z,96148.38
2022-09-28T05:15:31.561Z,96144.69
2022-09-28T05:18:34.983Z,96137.38
2022-09-28T05:21:40.688Z,96144.72
2022-09-28T05:24:46.421Z,96136.56
2022-09-28T05:27:50.162Z,96130.88
2022-09-28T05:31:06.985Z,96121.31
2022-09-28T05:34:45.748Z,96127.63
2022-09-28T05:37:55.954Z,96129.06
2022-09-28T05:41:04.392Z,96114.72
2022-09-28T05:44:09.517Z,96136.06
2022-09-28T05:47:12.840Z,96129.25
2022-09-28T05:50:16.473Z,96139.91
2022-09-28T05:53:19.590Z,96145.78
2022-09-28T05:56:24.358Z,96123.06
2022-09-28T05:59:30.228Z,96135.03
2022-09-28T06:02:33.388Z,96125.09
2022-09-28T06:05:38.310Z,96125.97
2022-09-28T06:08:43.648Z,96130.19
2022-09-28T06:12:05.562Z,96128.84
2022-09-28T06:15:17.442Z,96126.81
2022-09-28T06:18:22.364Z,96126.25
2022-09-28T06:21:44.037Z,96117.16
2022-09-28T06:24:47.453Z,96132.63
2022-09-28T06:27:59.920Z,96150.84
2022-09-28T06:31:03.325Z,96153.25
2022-09-28T06:34:07.276Z,96159.22
2022-09-28T06:37:10.406Z,96165.44
2022-09-28T06:40:13.564Z,96160.88
2022-09-28T06:43:23.793Z,96152.25
2022-09-28T06:46:45.648Z,96158.44
2022-09-28T06:50:13.639Z,96165.03
2022-09-28T06:53:40.309Z,96152.75
2022-09-28T06:56:54.453Z,96174.09
2022-09-28T06:59:59.126Z,96175.03
2022-09-28T07:03:03.742Z,96165.31
2022-09-28T07:06:26.671Z,96182.94
2022-09-28T07:09:50.299Z,96189.50
2022-09-28T07:13:44.758Z,96175.53
2022-09-28T07:17:09.981Z,96199.16
2022-09-28T07:20:18.280Z,96206.97
2022-09-28T07:23:23.040Z,96205.03
2022-09-28T07:26:45.415Z,96205.63
2022-09-28T07:30:09.613Z,96201.59
2022-09-28T07:33:37.266Z,96207.91
2022-09-28T07:36:59.606Z,96209.44
2022-09-28T07:40:29.583Z,96214.00
2022-09-28T07:43:33.707Z,96206.25
2022-09-28T07:46:37.281Z,96198.75
2022-09-28T07:49:46.908Z,96220.59
2022-09-28T07:53:14.258Z,96232.91
2022-09-28T07:56:27.713Z,96214.94
2022-09-28T07:59:36.306Z,96235.38
2022-09-28T08:03:04.304Z,96242.56
2022-09-28T08:06:12.615Z,96238.97
2022-09-28T08:09:16.284Z,96241.91
2022-09-28T08:12:40.687Z,96239.38
2022-09-28T08:16:02.944Z,96250.84
2022-09-28T08:19:11.901Z,96256.34
2022-09-28T08:22:17.745Z,96259.38
2022-09-28T08:25:21.106Z,96263.31
2022-09-28T08:28:25.854Z,96267.13
2022-09-28T08:31:33.043Z,96282.78
2022-09-28T08:34:47.375Z,96273.28
2022-09-28T08:38:10.894Z,96271.84
2022-09-28T08:41:41.002Z,96288.16
2022-09-28T08:45:09.081Z,96280.91
2022-09-28T08:49:13.413Z,96271.88
2022-09-28T08:52:41.515Z,96271.53
2022-09-28T08:55:53.723Z,96303.06
2022-09-28T08:59:01.358Z,96286.75
2022-09-28T09:02:05.581Z,96315.75
2022-09-28T09:05:14.818Z,96309.09
2022-09-28T09:09:04.303Z,96304.94
2022-09-28T09:12:19.156Z,96316.81
2022-09-28T09:15:39.404Z,96307.09
2022-09-28T09:19:00.107Z,96308.66
2022-09-28T09:22:18.160Z,96302.25
2022-09-28T09:25:26.835Z,96318.88
2022-09-28T09:29:02.388Z,96321.84
2022-09-28T09:35:30.995Z,96330.06
2022-09-28T09:39:08.471Z,96331.28
2022-09-28T09:42:45.301Z,96331.03
2022-09-28T09:46:16.697Z,96339.94
2022-09-28T09:49:41.278Z,96334.34
2022-09-28T09:52:57.242Z,96340.94
2022-09-28T09:56:15.248Z,96339.22
2022-09-28T09:59:51.380Z,96330.84
2022-09-28T10:03:23.246Z,96328.44
2022-09-28T10:06:33.879Z,96316.09
2022-09-28T10:09:43.312Z,96317.16
2022-09-28T10:12:57.880Z,96336.03
2022-09-28T10:16:01.351Z,96311.47
2022-09-28T10:19:16.174Z,96329.78
2022-09-28T10:22:57.253Z,96305.16
2022-09-28T10:26:06.475Z,96304.59
2022-09-28T10:29:15.813Z,96311.72
2022-09-28T10:32:22.386Z,96329.47
2022-09-28T10:35:30.648Z,96338.81
2022-09-28T10:38:36.920Z,96317.75
2022-09-28T10:41:54.338Z,96328.53
2022-09-28T10:45:17.464Z,96322.97
2022-09-28T10:48:23.213Z,96319.56
2022-09-28T10:51:41.775Z,96294.69
2022-09-28T10:54:54.396Z,96300.28
2022-09-28T10:58:01.148Z,96296.94
2022-09-28T11:01:19.012Z,96300.09
2022-09-28T11:04:26.887Z,96302.00
2022-09-28T11:07:33.400Z,96290.19
2022-09-28T11:10:37.524Z,96287.63
2022-09-28T11:14:02.657Z,96283.97
2022-09-28T11:17:18.326Z,96280.06
2022-09-28T11:20:35.933Z,96274.09
2022-09-28T11:23:42.146Z,96275.97
2022-09-28T11:26:57.435Z,96272.22
2022-09-28T11:30:05.817Z,96271.25
2022-09-28T11:33:20.664Z,96271.34
2022-09-28T11:37:11.538Z,96273.53
2022-09-28T11:40:27.670Z,96271.88
2022-09-28T11:43:49.373Z,96268.78
2022-09-28T11:47:05.963Z,96272.72
2022-09-28T11:50:23.828Z,96277.63
2022-09-28T11:53:32.578Z,96293.13
2022-09-28T11:56:41.101Z,96289.81
2022-09-28T11:59:55.983Z,96290.44
2022-09-28T12:03:06.809Z,96310.94
2022-09-28T12:06:16.649Z,96294.69
2022-09-28T12:09:26.072Z,96302.22
2022-09-28T12:12:50.661Z,96300.41
2022-09-28T12:16:27.280Z,96299.16
2022-09-28T12:19:31.898Z,96282.94
2022-09-28T12:22:40.455Z,96284.13
2022-09-28T12:25:48.199Z,96285.16
2022-09-28T12:28:56.954Z,96286.41
2022-09-28T12:32:11.605Z,96273.97
2022-09-28T12:35:20.915Z,96286.81
2022-09-28T12:38:48.253Z,96289.91
2022-09-28T12:42:18.443Z,96286.38
2022-09-28T12:45:38.869Z,96279.94
2022-09-28T12:50:01.874Z,96276.56
2022-09-28T12:52:42.910Z,96282.59
2022-09-28T12:55:56.551Z,96290.34
2022-09-28T12:59:12.711Z,96283.13
2022-09-28T13:02:43.290Z,96291.19
2022-09-28T13:06:16.377Z,96289.69
2022-09-28T13:09:23.916Z,96270.38
2022-09-28T13:12:37.931Z,96295.16
2022-09-28T13:15:52.987Z,96300.19
2022-09-28T13:19:04.928Z,96295.66
2022-09-28T13:22:23.436Z,96293.13
2022-09-28T13:25:34.145Z,96298.66
2022-09-28T13:28:38.710Z,96284.88
2022-09-28T13:31:50.572Z,96291.59
2022-09-28T13:34:54.763Z,96289.63
2022-09-28T13:38:44.084Z,96285.75
2022-09-28T13:41:50.604Z,96288.34
2022-09-28T13:45:09.474Z,96291.53
2022-09-28T13:48:16.953Z,96288.34
2022-09-28T13:51:32.912Z,96301.41
2022-09-28T13:54:57.124Z,96300.75
2022-09-28T13:58:05.276Z,96251.31
2022-09-28T14:01:12.480Z,96303.59
2022-09-28T14:04:19.476Z,96286.19
2022-09-28T14:10:51.700Z,96313.22
2022-09-28T14:14:07.221Z,96313.38
2022-09-28T14:17:53.308Z,96305.28
2022-09-28T14:21:24.062Z,96316.81
2022-09-28T14:24:36.831Z,96320.81
2022-09-28T14:28:17.573Z,96318.22
2022-09-28T14:31:27.542Z,96324.59
2022-09-28T14:34:36.314Z,96321.06
2022-09-28T14:38:00.731Z,96313.97
2022-09-28T14:41:10.442Z,96328.50
2022-09-28T14:44:16.290Z,96332.88
2022-09-28T14:47:35.715Z,96336.19
2022-09-28T14:50:38.937Z,96334.03
2022-09-28T14:53:43.074Z,96346.53
2022-09-28T14:56:52.867Z,96347.47
2022-09-28T15:00:00.107Z,96364.22
2022-09-28T15:03:12.016Z,96350.56
2022-09-28T15:06:16.865Z,96354.66
2022-09-28T15:09:29.503Z,96334.88
2022-09-28T15:12:33.166Z,96301.34
2022-09-28T15:15:41.506Z,96368.81
2022-09-28T15:19:18.341Z,96366.34
2022-09-28T15:22:22.126Z,96365.84
2022-09-28T15:25:26.837Z,96368.81
2022-09-28T15:28:30.382Z,96374.94
2022-09-28T15:35:20.658Z,96375.50
2022-09-28T15:38:25.174Z,96380.69
2022-09-28T15:41:29.458Z,96387.78
2022-09-28T15:44:35.253Z,96387.00
2022-09-28T15:47:44.943Z,96398.78
2022-09-28T15:51:01.142Z,96380.50
2022-09-28T15:54:11.120Z,96418.25
2022-09-28T15:57:33.288Z,96419.72
2022-09-28T16:00:36.885Z,96444.63
2022-09-28T16:03:40.199Z,96452.81
2022-09-28T16:06:46.226Z,96451.59
2022-09-28T16:09:58.410Z,96457.81
2022-09-28T16:13:23.946Z,96435.84
2022-09-28T16:16:30.374Z,96473.44
2022-09-28T16:19:39.319Z,96479.91
2022-09-28T16:22:44.883Z,96479.28
2022-09-28T16:25:52.682Z,96476.09
2022-09-28T16:28:55.866Z,96479.38
2022-09-28T16:32:35.071Z,96469.28
2022-09-28T16:35:51.365Z,96485.69
2022-09-28T16:38:55.887Z,96498.94
2022-09-28T16:42:02.816Z,96505.31
2022-09-28T16:45:07.721Z,96505.38
2022-09-28T16:48:15.887Z,96513.88
2022-09-28T16:51:19.881Z,96511.84
2022-09-28T16:54:43.020Z,96515.38
2022-09-28T16:57:50.190Z,96493.88
2022-09-28T17:00:54.051Z,96464.84
2022-09-28T17:03:57.283Z,96471.81
2022-09-28T17:07:00.764Z,96417.69
2022-09-28T17:10:16.012Z,96496.03
2022-09-28T17:13:19.322Z,96486.84
2022-09-28T17:16:43.570Z,96458.41
2022-09-28T17:19:47.558Z,96526.63
2022-09-28T17:22:51.174Z,96529.06
2022-09-28T17:25:56.576Z,96539.25
2022-09-28T17:29:01.586Z,96539.56
2022-09-28T17:32:15.133Z,96514.03
2022-09-28T17:35:25.319Z,96534.44
2022-09-28T17:38:29.248Z,96507.72
2022-09-28T17:41:34.291Z,96537.66
2022-09-28T17:44:37.429Z,96544.78
2022-09-28T17:47:40.595Z,96539.44
2022-09-28T17:50:46.527Z,96535.84
2022-09-28T17:53:49.826Z,96537.44
2022-09-28T17:56:54.546Z,96508.84
2022-09-28T17:59:58.325Z,96537.47
2022-09-28T18:03:01.747Z,96547.03
2022-09-28T18:06:07.587Z,96563.84
2022-09-28T18:09:15.468Z,96568.25
2022-09-28T18:12:20.662Z,96576.34
2022-09-28T18:15:24.030Z,96574.81
2022-09-28T18:18:27.220Z,96561.13
2022-09-28T18:21:32.574Z,96559.63
2022-09-28T18:24:35.664Z,96555.63
2022-09-28T18:27:40.195Z,96557.59
2022-09-28T18:30:45.631Z,96551.81
2022-09-28T18:33:49.681Z,96561.13
2022-09-28T18:36:52.788Z,96564.94
2022-09-28T18:39:55.946Z,96571.44
2022-09-28T18:43:00.416Z,96580.38
2022-09-28T18:46:07.097Z,96578.81
2022-09-28T18:49:10.389Z,96591.34
2022-09-28T18:52:13.538Z,96603.88
2022-09-28T18:55:16.804Z,96598.41
2022-09-28T18:58:21.293Z,96601.66
2022-09-28T19:01:29.951Z,96609.34
2022-09-28T19:04:33.769Z,96591.16
2022-09-28T19:07:36.980Z,96609.22
2022-09-28T19:10:40.112Z,96605.91
2022-09-28T19:13:44.972Z,96607.00
2022-09-28T19:16:48.249Z,96603.69
2022-09-28T19:19:52.039Z,96610.31
2022-09-28T19:22:55.338Z,96612.00
2022-09-28T19:26:01.916Z,96613.41
2022-09-28T19:29:06.521Z,96600.72
2022-09-28T19:32:12.115Z,96627.38
2022-09-28T19:35:15.340Z,96623.16
2022-09-28T19:38:18.554Z,96619.28
2022-09-28T19:41:44.177Z,96638.41
2022-09-28T19:44:49.338Z,96612.09
2022-09-28T19:47:56.144Z,96636.94
2022-09-28T19:51:03.709Z,96642.69
2022-09-28T19:54:07.478Z,96641.84
2022-09-28T19:57:11.592Z,96642.56
2022-09-28T20:00:16.793Z,96647.53
2022-09-28T20:03:19.941Z,96653.50
2022-09-28T20:06:23.176Z,96580.78
2022-09-28T20:09:26.332Z,96661.34
2022-09-28T20:12:29.951Z,96660.75
2022-09-28T20:15:36.764Z,96671.22
2022-09-28T20:18:43.622Z,96667.81
2022-09-28T20:21:48.087Z,96674.72
2022-09-28T20:24:51.491Z,96680.03
2022-09-28T20:27:55.095Z,96672.97
2022-09-28T20:31:04.065Z,96671.97
2022-09-28T20:34:07.361Z,96677.78
2022-09-28T20:37:12.412Z,96678.09
2022-09-28T20:40:15.843Z,96673.44
2022-09-28T20:43:19.004Z,96692.56
2022-09-28T20:46:24.460Z,96687.69
2022-09-28T20:49:28.118Z,96689.22
2022-09-28T20:52:31.275Z,96662.16
2022-09-28T20:55:34.669Z,96697.91
2022-09-28T20:58:40.249Z,96669.81
2022-09-28T21:01:45.307Z,96681.41
2022-09-28T21:04:48.576Z,96706.97
2022-09-28T21:07:51.736Z,96705.66
2022-09-28T21:10:55.210Z,96705.78
2022-09-28T21:14:01.784Z,96706.25
2022-09-28T21:17:06.629Z,96701.63
2022-09-28T21:20:10.306Z,96702.19
2022-09-28T21:23:13.760Z,96695.94
2022-09-28T21:26:24.749Z,96680.94
2022-09-28T21:29:28.701Z,96678.56
2022-09-28T21:35:19.191Z,96698.34
2022-09-28T21:38:22.419Z,96694.56
2022-09-28T21:41:26.086Z,96696.72
2022-09-28T21:44:29.454Z,96642.28
2022-09-28T21:47:33.143Z,96686.84
2022-09-28T21:50:37.737Z,96685.06
2022-09-28T21:53:42.857Z,96681.22
2022-09-28T21:56:46.259Z,96690.22
2022-09-28T21:59:49.509Z,96681.06
2022-09-28T22:02:52.973Z,96678.59
2022-09-28T22:05:57.623Z,96684.22
2022-09-28T22:09:00.792Z,96681.53
2022-09-28T22:12:04.038Z,96692.59
2022-09-28T22:15:08.593Z,96693.44
2022-09-28T22:18:11.716Z,96693.16
2022-09-28T22:21:18.681Z,96672.91
2022-09-28T22:24:22.015Z,96698.81
2022-09-28T22:27:25.150Z,96695.91
2022-09-28T22:30:28.431Z,96703.50
2022-09-28T22:33:31.893Z,96692.88
2022-09-28T22:36:36.891Z,96693.69
2022-09-28T22:39:41.076Z,96694.59
2022-09-28T22:42:44.313Z,96688.09
2022-09-28T22:45:47.913Z,96665.09
2022-09-28T22:48:53.232Z,96699.19
2022-09-28T22:51:57.914Z,96707.44
2022-09-28T22:55:00.984Z,96700.28
2022-09-28T22:58:04.234Z,96702.47
2022-09-28T23:01:09.275Z,96695.28
2022-09-28T23:04:12.695Z,96703.22
2022-09-28T23:07:17.177Z,96701.09
2022-09-28T23:10:20.394Z,96699.22
2022-09-28T23:13:23.520Z,96678.72
2022-09-28T23:16:27.430Z,96675.94
2022-09-28T23:19:30.701Z,96714.47
2022-09-28T23:22:35.223Z,96712.75
2022-09-28T23:25:38.554Z,96706.78
2022-09-28T23:28:41.980Z,96697.59
2022-09-28T23:31:45.502Z,96717.72
2022-09-28T23:34:48.644Z,96716.06
2022-09-28T23:37:53.226Z,96707.09
2022-09-28T23:40:56.648Z,96711.84
2022-09-28T23:44:00.045Z,96726.81
2022-09-28T23:47:03.288Z,96717.72
2022-09-28T23:50:07.910Z,96719.78
2022-09-28T23:53:14.127Z,96721.91
2022-09-28T23:56:17.246Z,96701.88
2022-09-28T23:59:20.420Z,96714.34
